createdAt,value
2023-03-22T00:03:43.863Z,13.07
2023-03-22T00:08:50.734Z,14.63
2023-03-22T00:13:53.748Z,12.07
2023-03-22T00:18:55.705Z,11.05
2023-03-22T00:23:57.523Z,11.88
2023-03-22T00:28:59.393Z,10.68
2023-03-22T00:34:01.196Z,10.63
2023-03-22T00:39:03.078Z,10.90
2023-03-22T00:44:04.993Z,9.43
2023-03-22T00:49:06.655Z,8.95
2023-03-22T00:54:08.333Z,11.85
2023-03-22T00:59:10.132Z,11.18
2023-03-22T01:04:17.928Z,10.32
2023-03-22T01:09:23.897Z,10.82
2023-03-22T01:14:26.244Z,10.68
2023-03-22T01:19:28.133Z,11.68
2023-03-22T01:24:29.815Z,9.93
2023-03-22T01:29:31.658Z,8.55
2023-03-22T01:34:33.416Z,9.23
2023-03-22T01:39:36.199Z,10.60
2023-03-22T01:44:44.804Z,8.00
2023-03-22T01:49:49.141Z,10.25
2023-03-22T01:54:53.790Z,8.13
2023-03-22T02:00:15.801Z,9.20
2023-03-22T02:05:44.125Z,11.35
2023-03-22T02:10:47.166Z,11.93
2023-03-22T02:16:17.621Z,11.60
2023-03-22T02:21:42.192Z,8.15
2023-03-22T02:27:25.506Z,11.57
2023-03-22T02:32:48.319Z,9.45
2023-03-22T02:38:02.340Z,9.95
2023-03-22T02:43:38.549Z,11.50
2023-03-22T02:48:48.043Z,11.45
2023-03-22T02:53:58.990Z,9.98
2023-03-22T02:59:04.985Z,9.07
2023-03-22T03:04:12.788Z,12.38
2023-03-22T03:09:18.082Z,12.38
2023-03-22T03:14:26.038Z,7.95
2023-03-22T03:19:40.586Z,12.15
2023-03-22T03:24:56.153Z,11.70
2023-03-22T03:30:10.162Z,10.00
2023-03-22T03:35:23.250Z,10.32
2023-03-22T03:40:31.214Z,10.88
2023-03-22T03:45:36.188Z,10.30
2023-03-22T03:50:38.378Z,14.00
2023-03-22T03:55:40.894Z,13.57
2023-03-22T04:00:43.564Z,10.82
2023-03-22T04:06:06.409Z,9.70
2023-03-22T04:11:12.189Z,11.38
2023-03-22T04:16:15.421Z,14.00
2023-03-22T04:21:17.613Z,11.77
2023-03-22T04:26:26.792Z,10.27
2023-03-22T04:31:50.840Z,12.40
2023-03-22T04:36:56.631Z,7.97
2023-03-22T04:42:11.289Z,9.40
2023-03-22T04:47:13.960Z,11.15
2023-03-22T04:52:16.075Z,10.32
2023-03-22T04:57:25.048Z,10.93
2023-03-22T05:02:26.997Z,12.35
2023-03-22T05:07:29.811Z,13.23
2023-03-22T05:12:34.001Z,15.18
2023-03-22T05:17:52.661Z,12.13
2023-03-22T05:22:56.914Z,12.05
2023-03-22T05:28:01.814Z,11.45
2023-03-22T05:33:16.986Z,11.65
2023-03-22T05:38:22.821Z,13.18
2023-03-22T05:43:27.004Z,11.02
2023-03-22T05:48:29.054Z,11.43
2023-03-22T05:53:31.877Z,11.07
2023-03-22T05:58:59.464Z,11.32
2023-03-22T06:04:01.430Z,14.55
2023-03-22T06:09:17.262Z,13.30
2023-03-22T06:14:22.617Z,12.35
2023-03-22T06:19:47.560Z,10.82
2023-03-22T06:24:50.881Z,10.70
2023-03-22T06:30:01.605Z,13.75
2023-03-22T06:35:07.003Z,11.57
2023-03-22T06:40:10.017Z,11.98
2023-03-22T06:45:14.669Z,13.30
2023-03-22T06:50:18.711Z,10.95
2023-03-22T06:55:43.189Z,12.15
2023-03-22T07:00:49.090Z,14.35
2023-03-22T07:05:53.012Z,12.63
2023-03-22T07:10:54.874Z,14.68
2023-03-22T07:16:01.171Z,14.32
2023-03-22T07:21:26.052Z,11.85
2023-03-22T07:26:32.629Z,16.88
2023-03-22T07:31:36.604Z,11.95
2023-03-22T07:36:45.339Z,11.52
2023-03-22T07:41:47.820Z,11.13
2023-03-22T07:47:09.870Z,9.88
2023-03-22T07:52:19.155Z,11.15
2023-03-22T07:57:21.903Z,9.73
2023-03-22T08:02:30.257Z,9.30
2023-03-22T08:07:34.489Z,10.35
2023-03-22T08:12:36.483Z,11.65
2023-03-22T08:17:49.843Z,9.55
2023-03-22T08:23:01.025Z,10.38
2023-03-22T08:28:03.407Z,9.10
2023-03-22T08:33:06.492Z,9.52
2023-03-22T08:38:09.014Z,10.13
2023-03-22T08:43:19.791Z,11.20
2023-03-22T08:48:21.943Z,9.23
2023-03-22T08:53:50.059Z,10.15
2023-03-22T08:59:11.777Z,10.68
2023-03-22T09:04:24.708Z,11.70
2023-03-22T09:09:26.630Z,12.75
2023-03-22T09:14:29.586Z,12.13
2023-03-22T09:19:32.188Z,13.25
2023-03-22T09:24:33.925Z,12.98
2023-03-22T09:29:37.889Z,13.52
2023-03-22T09:34:44.065Z,13.95
2023-03-22T09:39:46.461Z,14.15
2023-03-22T09:44:51.632Z,13.80
2023-03-22T09:50:16.002Z,14.35
2023-03-22T09:55:21.520Z,13.82
2023-03-22T10:00:38.642Z,14.52
2023-03-22T10:05:51.340Z,13.60
2023-03-22T10:10:53.260Z,15.18
2023-03-22T10:16:02.522Z,16.67
2023-03-22T10:21:06.960Z,16.42
2023-03-22T10:26:22.789Z,16.45
2023-03-22T10:31:26.704Z,14.98
2023-03-22T10:36:34.718Z,16.20
2023-03-22T10:41:36.822Z,15.48
2023-03-22T10:46:41.062Z,16.05
2023-03-22T10:51:49.215Z,16.88
2023-03-22T10:56:50.984Z,17.48
2023-03-22T11:01:52.795Z,16.23
2023-03-22T11:06:56.172Z,16.73
2023-03-22T11:12:02.433Z,17.70
2023-03-22T11:17:07.060Z,17.38
2023-03-22T11:22:24.950Z,18.40
2023-03-22T11:27:33.053Z,18.05
2023-03-22T11:32:39.535Z,17.88
2023-03-22T11:37:49.398Z,17.70
2023-03-22T11:42:57.078Z,17.70
2023-03-22T11:48:07.038Z,18.23
2023-03-22T11:53:15.518Z,19.08
2023-03-22T11:58:44.628Z,18.40
2023-03-22T12:03:54.004Z,18.55
2023-03-22T12:09:00.781Z,18.35
2023-03-22T12:14:09.498Z,19.02
2023-03-22T12:19:28.228Z,19.23
2023-03-22T12:24:32.965Z,18.60
2023-03-22T12:29:36.441Z,18.98
2023-03-22T12:34:44.889Z,18.73
2023-03-22T12:39:55.831Z,18.63
2023-03-22T12:45:05.832Z,18.52
2023-03-22T12:50:13.089Z,18.08
2023-03-22T12:55:30.736Z,19.02
2023-03-22T13:00:43.104Z,18.25
2023-03-22T13:05:47.182Z,18.23
2023-03-22T13:10:50.521Z,18.80
2023-03-22T13:16:09.398Z,18.15
2023-03-22T13:21:26.624Z,18.45
2023-03-22T13:26:47.285Z,17.75
2023-03-22T13:31:52.152Z,17.90
2023-03-22T13:36:56.427Z,17.45
2023-03-22T13:42:38.075Z,17.92
2023-03-22T13:47:47.255Z,18.05
2023-03-22T13:53:06.582Z,18.15
2023-03-22T13:58:45.673Z,18.10
2023-03-22T14:03:50.527Z,18.15
2023-03-22T14:08:57.418Z,18.80
2023-03-22T14:14:09.969Z,18.20
2023-03-22T14:19:18.527Z,18.15
